マンチェスター の空港の天気 - METARとTAF

マンチェスター空港 ( EGCC / MAN ) - イギリス マンチェスター
飛行場実況気象(Metar)
観測時間10/18 09:50 BST (10/18 08:50 UTC)
風向・風速南 2m/s
視程10km以上
天気現象
少しの雲 雲底高度 430m
気温9℃
湿度87%
気圧995hPa
METAREGCC 180850Z 17004KT 130V220 9999 FEW014 09/07 Q0995
過去の天気等 Google飛行場航空写真 Wunderground天気予報

過去48時間のMETAR

飛行場予報(TAF)
発表時間: 10/18 06:00 BST (10/18 05:00 UTC)
予報対象時間: 18日7時 BST ~ 19日13時 BST
風向・風速南 4m/s
視程10km以上
少しの雲 雲底高度 1070m
18日12時 BST ~ 18日23時 BST に 確率 30% で一時的に
視程6000m
天気現象しゅう雨
18日14時 BST ~ 18日21時 BST に 確率 30% で一時的に
視程4000m
天気現象強いしゅう雨
全天の8割程度の積乱雲 雲底高度 430m
18日22時 BST ~ 19日7時 BST に 確率 30% で一時的に
全天の8割程度の雲 雲底高度 180m
TAF EGCC 180500Z 1806/1912 17008KT 9999 FEW035
PROB30 TEMPO 1811/1822 6000 SHRA
PROB30 TEMPO 1813/1820 4000 +SHRA BKN014CB
PROB30 TEMPO 1821/1906 BKN006